^^
Station Historical Data
 
Daily Summary for April 26, 2015 Units:  English    Metric   Both
« Previous Day
Next Day »
Daily Weekly Monthly Yearly Custom
  Current: High: Low: Average:
Temperature: 62.4 °F 64.9 °F 38.3 °F 50.5 °F
Dew Point: 14.2 °F 26.3 °F 10.9 °F 17.8 °F
Humidity: 15% 50% 15% 30%
Wind Speed: 4.8mph 8.0mph 0.0mph 4.4mph
Wind Gust: 6.9mph 14.5mph - -
WindEast - - East
Pressure: 29.76 in 29.81 in 29.70 in -
Precipitation: 0.00 in      
Historical Graphs
 
 
Tabular Data for April 26, 2015
Time Temperature Dew Point Pressure Wind Wind Speed Wind Gust Humidity Rainfall Rate (Hourly)
00:04 47.5 °F 13.4 °F 29.70 in Calm   0.7 mph 25% 0.00 in
00:09 47.1 °F 13.1 °F 29.70 in Calm     25% 0.00 in
00:14 47.1 °F 14.0 °F 29.70 in Calm     26% 0.00 in
00:19 47.1 °F 14.9 °F 29.70 in Calm     27% 0.00 in
00:24 47.1 °F 14.9 °F 29.71 in Calm     27% 0.00 in
00:29 46.9 °F 14.7 °F 29.71 in ENE 0.2 mph 0.7 mph 27% 0.00 in
00:34 46.9 °F 15.5 °F 29.71 in SE 0.3 mph 1.6 mph 28% 0.00 in
00:39 46.7 °F 16.2 °F 29.71 in South 0.3 mph 1.6 mph 29% 0.00 in
00:44 46.6 °F 15.2 °F 29.71 in South 0.4 mph 2.2 mph 28% 0.00 in
00:49 46.4 °F 15.9 °F 29.71 in South 1.0 mph 3.1 mph 29% 0.00 in
00:54 46.4 °F 17.4 °F 29.71 in South 1.6 mph 3.1 mph 31% 0.00 in
00:59 46.2 °F 18.0 °F 29.71 in South 1.1 mph 3.1 mph 32% 0.00 in
01:04 46.2 °F 19.4 °F 29.71 in West 0.6 mph 1.6 mph 34% 0.00 in
01:09 46.2 °F 20.7 °F 29.71 in NNW 0.7 mph 1.6 mph 36% 0.00 in
01:14 46.0 °F 21.2 °F 29.71 in WNW 0.7 mph 1.6 mph 37% 0.00 in
01:19 45.8 °F 22.3 °F 29.71 in WNW 1.0 mph 1.6 mph 39% 0.00 in
01:24 45.8 °F 22.9 °F 29.71 in NNW 0.8 mph 1.6 mph 40% 0.00 in
01:29 45.8 °F 23.5 °F 29.71 in WNW 0.2 mph 1.6 mph 41% 0.00 in
01:34 45.8 °F 23.5 °F 29.70 in Calm     41% 0.00 in
01:39 45.7 °F 23.9 °F 29.70 in Calm     42% 0.00 in
01:44 45.7 °F 24.5 °F 29.71 in Calm     43% 0.00 in
01:49 45.5 °F 24.9 °F 29.70 in Calm     44% 0.00 in
01:54 45.3 °F 24.7 °F 29.70 in Calm     44% 0.00 in
01:59 45.3 °F 25.2 °F 29.71 in Calm     45% 0.00 in
02:05 45.3 °F 25.2 °F 29.71 in Calm     45% 0.00 in
02:10 44.9 °F 25.4 °F 29.71 in North 0.3 mph 2.2 mph 46% 0.00 in
02:15 44.8 °F 25.3 °F 29.71 in North 0.7 mph 2.2 mph 46% 0.00 in
02:20 44.6 °F 25.6 °F 29.70 in NNE 0.5 mph 1.6 mph 47% 0.00 in
02:25 44.4 °F 25.4 °F 29.70 in SE 0.3 mph 0.7 mph 47% 0.00 in
02:30 44.2 °F 26.3 °F 29.71 in SSE 0.9 mph 3.1 mph 49% 0.00 in
02:35 44.0 °F 26.1 °F 29.71 in NNE 1.3 mph 3.1 mph 49% 0.00 in
02:40 43.9 °F 23.4 °F 29.71 in NNE 1.4 mph 3.1 mph 44% 0.00 in
02:45 43.9 °F 22.3 °F 29.71 in NE 2.0 mph 4.5 mph 42% 0.00 in
02:50 43.9 °F 21.1 °F 29.71 in ENE 2.0 mph 4.5 mph 40% 0.00 in
02:55 43.9 °F 21.7 °F 29.71 in ENE 1.5 mph 2.2 mph 41% 0.00 in
03:00 43.7 °F 21.0 °F 29.71 in NNE 1.1 mph 2.2 mph 40% 0.00 in
03:05 43.7 °F 21.0 °F 29.71 in NW 0.8 mph 1.6 mph 40% 0.00 in
03:10 43.7 °F 19.8 °F 29.72 in NNW 1.0 mph 2.2 mph 38% 0.00 in
03:15 43.5 °F 20.2 °F 29.72 in North 1.5 mph 2.2 mph 39% 0.00 in
03:20 43.3 °F 20.0 °F 29.72 in North 1.5 mph 2.2 mph 39% 0.00 in
03:25 43.0 °F 19.1 °F 29.71 in NE 2.3 mph 5.4 mph 38% 0.00 in
03:30 42.8 °F 18.3 °F 29.72 in NE 3.3 mph 6.0 mph 37% 0.00 in
03:35 42.8 °F 18.3 °F 29.72 in NNE 2.6 mph 6.0 mph 37% 0.00 in
03:40 42.6 °F 18.2 °F 29.72 in North 1.7 mph 3.8 mph 37% 0.00 in
03:45 42.2 °F 17.9 °F 29.72 in North 2.8 mph 6.0 mph 37% 0.00 in
03:50 42.2 °F 17.9 °F 29.72 in NNE 4.3 mph 6.9 mph 37% 0.00 in
03:55 42.1 °F 17.1 °F 29.71 in NE 4.7 mph 6.9 mph 36% 0.00 in
04:00 42.1 °F 17.1 °F 29.72 in NNE 4.2 mph 6.9 mph 36% 0.00 in
04:05 42.1 °F 17.1 °F 29.72 in NNW 3.4 mph 4.5 mph 36% 0.00 in
04:10 41.9 °F 16.9 °F 29.72 in NW 3.2 mph 5.4 mph 36% 0.00 in
04:15 41.9 °F 16.9 °F 29.72 in NNE 3.7 mph 6.0 mph 36% 0.00 in
04:20 41.7 °F 16.7 °F 29.72 in NE 3.6 mph 8.3 mph 36% 0.00 in
04:25 41.7 °F 16.7 °F 29.73 in NE 4.4 mph 8.3 mph 36% 0.00 in
04:30 41.5 °F 16.6 °F 29.72 in NNE 5.6 mph 9.2 mph 36% 0.00 in
04:35 41.5 °F 16.6 °F 29.72 in NE 5.1 mph 9.2 mph 36% 0.00 in
04:40 41.5 °F 16.6 °F 29.72 in NE 3.8 mph 5.4 mph 36% 0.00 in
04:45 41.3 °F 16.4 °F 29.73 in ENE 3.7 mph 5.4 mph 36% 0.00 in
04:50 41.3 °F 17.1 °F 29.73 in NE 4.7 mph 6.9 mph 37% 0.00 in
04:55 41.2 °F 16.9 °F 29.73 in NE 4.7 mph 6.9 mph 37% 0.00 in
05:00 41.0 °F 16.7 °F 29.72 in NE 4.7 mph 6.9 mph 37% 0.00 in
05:05 41.0 °F 16.7 °F 29.72 in NE 5.4 mph 6.9 mph 37% 0.00 in
05:10 41.0 °F 17.3 °F 29.72 in NE 5.8 mph 6.9 mph 38% 0.00 in
05:15 40.8 °F 17.2 °F 29.72 in NNE 4.7 mph 6.9 mph 38% 0.00 in
05:20 40.8 °F 17.8 °F 29.72 in NNE 3.9 mph 5.4 mph 39% 0.00 in
05:25 40.8 °F 17.8 °F 29.72 in NNE 4.1 mph 6.0 mph 39% 0.00 in
05:30 40.6 °F 17.6 °F 29.72 in NE 3.7 mph 6.0 mph 39% 0.00 in
05:35 40.6 °F 18.2 °F 29.72 in NNE 3.5 mph 5.4 mph 40% 0.00 in
05:40 40.4 °F 18.6 °F 29.73 in NNE 3.3 mph 5.4 mph 41% 0.00 in
05:45 40.4 °F 19.2 °F 29.73 in NE 3.4 mph 6.9 mph 42% 0.00 in
05:50 40.3 °F 19.0 °F 29.73 in NE 3.4 mph 6.9 mph 42% 0.00 in
05:56 40.1 °F 19.4 °F 29.73 in NE 3.1 mph 6.0 mph 43% 0.00 in
06:01 39.9 °F 19.2 °F 29.73 in NE 3.4 mph 6.0 mph 43% 0.00 in
06:06 39.9 °F 19.2 °F 29.73 in ENE 3.9 mph 4.5 mph 43% 0.00 in
06:11 39.5 °F 19.5 °F 29.73 in ENE 3.9 mph 4.5 mph 44% 0.00 in
06:16 39.4 °F 19.8 °F 29.73 in NE 2.6 mph 4.5 mph 45% 0.00 in
06:21 39.2 °F 19.6 °F 29.74 in NNE 1.9 mph 3.8 mph 45% 0.00 in
06:26 39.0 °F 20.0 °F 29.73 in NE 2.2 mph 4.5 mph 46% 0.00 in
06:31 38.8 °F 19.8 °F 29.74 in NNE 2.0 mph 4.5 mph 46% 0.00 in
06:36 38.6 °F 20.2 °F 29.74 in NNE 2.2 mph 6.0 mph 47% 0.00 in
06:41 38.5 °F 20.0 °F 29.74 in North 2.7 mph 6.0 mph 47% 0.00 in
06:46 38.3 °F 20.3 °F 29.74 in North 2.4 mph 6.0 mph 48% 0.00 in
06:51 38.3 °F 20.3 °F 29.75 in NNE 2.2 mph 3.1 mph 48% 0.00 in
06:56 38.3 °F 20.8 °F 29.75 in North 2.2 mph 4.5 mph 49% 0.00 in
07:01 38.3 °F 20.8 °F 29.75 in North 2.3 mph 4.5 mph 49% 0.00 in
07:06 38.5 °F 21.0 °F 29.75 in North 2.1 mph 4.5 mph 49% 0.00 in
07:11 38.6 °F 21.2 °F 29.76 in NNE 1.8 mph 3.1 mph 49% 0.00 in
07:16 38.8 °F 21.8 °F 29.76 in North 1.6 mph 3.8 mph 50% 0.00 in
07:21 39.4 °F 21.8 °F 29.77 in North 1.7 mph 6.0 mph 49% 0.00 in
07:26 39.5 °F 22.0 °F 29.77 in NNE 2.6 mph 6.0 mph 49% 0.00 in
07:31 39.7 °F 21.7 °F 29.77 in NE 3.4 mph 4.5 mph 48% 0.00 in
07:36 40.3 °F 22.2 °F 29.77 in NE 3.0 mph 4.5 mph 48% 0.00 in
07:41 40.4 °F 21.8 °F 29.77 in NE 4.3 mph 6.0 mph 47% 0.00 in
07:46 40.8 °F 21.6 °F 29.77 in ENE 4.5 mph 6.0 mph 46% 0.00 in
07:51 41.2 °F 21.4 °F 29.77 in ENE 5.8 mph 7.6 mph 45% 0.00 in
07:56 41.5 °F 21.2 °F 29.78 in ENE 6.3 mph 7.6 mph 44% 0.00 in
08:01 41.9 °F 21.0 °F 29.77 in NNE 7.1 mph 7.6 mph 43% 0.00 in
08:06 42.1 °F 20.6 °F 29.78 in North 6.0 mph 7.6 mph 42% 0.00 in
08:11 42.6 °F 21.1 °F 29.78 in WNW 5.3 mph 6.0 mph 42% 0.00 in
08:16 42.8 °F 20.7 °F 29.78 in ENE 4.8 mph 5.4 mph 41% 0.00 in
08:21 43.3 °F 21.2 °F 29.78 in East 5.6 mph 6.9 mph 41% 0.00 in
08:26 43.9 °F 21.1 °F 29.78 in NE 5.3 mph 6.9 mph 40% 0.00 in
08:31 44.2 °F 20.8 °F 29.78 in ENE 5.1 mph 6.9 mph 39% 0.00 in
08:36 44.9 °F 20.8 °F 29.79 in NW 4.3 mph 4.5 mph 38% 0.00 in
08:41 45.5 °F 21.3 °F 29.79 in NNE 3.3 mph 4.5 mph 38% 0.00 in
08:46 46.2 °F 21.3 °F 29.79 in NW 2.8 mph 4.5 mph 37% 0.00 in
08:51 46.7 °F 21.2 °F 29.79 in ENE 2.8 mph 4.5 mph 36% 0.00 in
09:03 47.1 °F 20.8 °F 29.79 in NE 5.3 mph 9.2 mph 35% 0.00 in
09:08 48.0 °F 20.3 °F 29.80 in NE 5.8 mph 7.6 mph 33% 0.00 in
09:13 48.5 °F 20.8 °F 29.79 in NE 5.7 mph 7.6 mph 33% 0.00 in
09:18 49.1 °F 20.5 °F 29.80 in ENE 5.6 mph 8.3 mph 32% 0.00 in
09:23 49.4 °F 20.1 °F 29.79 in NE 6.5 mph 10.7 mph 31% 0.00 in
09:28 49.8 °F 19.6 °F 29.80 in ENE 7.5 mph 10.7 mph 30% 0.00 in
09:33 50.3 °F 20.1 °F 29.80 in ENE 7.1 mph 10.7 mph 30% 0.00 in
09:38 50.9 °F 19.0 °F 29.80 in ENE 6.6 mph 9.8 mph 28% 0.00 in
09:43 51.1 °F 19.1 °F 29.80 in NE 6.8 mph 8.3 mph 28% 0.00 in
09:48 51.2 °F 17.5 °F 29.80 in NE 6.1 mph 8.3 mph 26% 0.00 in
09:53 51.2 °F 19.3 °F 29.80 in NNE 4.8 mph 6.9 mph 28% 0.00 in
09:58 51.8 °F 19.7 °F 29.79 in NE 5.1 mph 7.6 mph 28% 0.00 in
10:03 52.1 °F 19.2 °F 29.79 in NE 6.6 mph 9.2 mph 27% 0.00 in
10:08 52.9 °F 18.0 °F 29.79 in NE 5.7 mph 9.2 mph 25% 0.00 in
10:13 53.0 °F 19.1 °F 29.80 in East 5.3 mph 8.3 mph 26% 0.00 in
10:18 53.6 °F 18.6 °F 29.80 in East 6.3 mph 8.3 mph 25% 0.00 in
10:23 54.1 °F 19.1 °F 29.80 in East 6.0 mph 8.3 mph 25% 0.00 in
10:28 54.5 °F 17.5 °F 29.80 in East 6.0 mph 8.3 mph 23% 0.00 in
10:33 53.9 °F 17.0 °F 29.80 in ENE 6.1 mph 8.3 mph 23% 0.00 in
10:38 54.5 °F 18.5 °F 29.79 in ENE 6.3 mph 8.3 mph 24% 0.00 in
10:43 55.4 °F 20.2 °F 29.79 in ENE 6.2 mph 9.2 mph 25% 0.00 in
10:48 55.9 °F 19.7 °F 29.79 in ENE 4.4 mph 9.2 mph 24% 0.00 in
10:53 56.6 °F 19.3 °F 29.80 in East 4.5 mph 9.2 mph 23% 0.00 in
10:58 57.4 °F 19.9 °F 29.80 in East 6.1 mph 9.2 mph 23% 0.00 in
11:03 57.9 °F 18.2 °F 29.80 in East 5.9 mph 9.2 mph 21% 0.00 in
11:08 58.1 °F 18.4 °F 29.80 in ESE 6.3 mph 9.2 mph 21% 0.00 in
11:13 57.4 °F 11.6 °F 29.81 in East 7.0 mph 10.7 mph 16% 0.00 in
11:18 57.4 °F 17.8 °F 29.80 in North 5.6 mph 10.7 mph 21% 0.00 in
11:24 57.7 °F 18.1 °F 29.81 in NE 5.3 mph 7.6 mph 21% 0.00 in
11:29 58.4 °F 15.1 °F 29.81 in NE 6.4 mph 9.2 mph 18% 0.00 in
11:34 58.3 °F 10.9 °F 29.81 in NE 6.8 mph 10.7 mph 15% 0.00 in
11:39 58.3 °F 15.0 °F 29.81 in NE 6.6 mph 10.7 mph 18% 0.00 in
11:44 58.8 °F 15.4 °F 29.80 in ENE 7.0 mph 10.7 mph 18% 0.00 in
11:49 59.2 °F 15.7 °F 29.80 in ENE 7.4 mph 10.7 mph 18% 0.00 in
11:54 59.5 °F 11.9 °F 29.80 in ENE 5.5 mph 10.7 mph 15% 0.00 in
11:59 59.5 °F 16.0 °F 29.81 in East 5.5 mph 9.8 mph 18% 0.00 in
12:04 59.9 °F 15.0 °F 29.80 in ENE 6.7 mph 9.8 mph 17% 0.00 in
12:09 59.9 °F 15.0 °F 29.80 in East 6.7 mph 7.6 mph 17% 0.00 in
12:14 60.1 °F 12.3 °F 29.80 in NE 7.2 mph 9.2 mph 15% 0.00 in
12:19 60.2 °F 13.9 °F 29.80 in NNE 6.0 mph 9.2 mph 16% 0.00 in
12:24 60.4 °F 12.6 °F 29.80 in NE 5.5 mph 8.3 mph 15% 0.00 in
12:29 60.6 °F 14.2 °F 29.80 in NE 6.7 mph 9.8 mph 16% 0.00 in
12:34 59.9 °F 15.0 °F 29.80 in NE 6.4 mph 9.8 mph 17% 0.00 in
12:39 60.1 °F 12.3 °F 29.79 in ENE 6.2 mph 8.3 mph 15% 0.00 in
12:44 60.6 °F 12.7 °F 29.79 in ENE 6.8 mph 9.2 mph 15% 0.00 in
12:49 61.0 °F 13.0 °F 29.79 in NNE 6.5 mph 9.8 mph 15% 0.00 in
12:54 60.6 °F 12.7 °F 29.79 in NNE 5.9 mph 9.8 mph 15% 0.00 in
12:59 60.6 °F 14.2 °F 29.79 in ENE 5.3 mph 8.3 mph 16% 0.00 in
13:04 60.6 °F 12.7 °F 29.78 in NNW 5.6 mph 6.9 mph 15% 0.00 in
13:09 60.6 °F 12.7 °F 29.78 in NNW 6.8 mph 7.6 mph 15% 0.00 in
13:14 61.3 °F 13.3 °F 29.79 in NNE 7.1 mph 9.2 mph 15% 0.00 in
13:19 61.9 °F 13.7 °F 29.78 in ENE 6.6 mph 9.2 mph 15% 0.00 in
13:24 62.4 °F 14.2 °F 29.78 in East 6.2 mph 9.2 mph 15% 0.00 in
13:29 62.8 °F 14.5 °F 29.78 in ENE 6.9 mph 9.2 mph 15% 0.00 in
13:34 63.1 °F 14.8 °F 29.78 in East 6.4 mph 9.8 mph 15% 0.00 in
13:39 63.7 °F 15.2 °F 29.79 in ESE 5.7 mph 9.8 mph 15% 0.00 in
13:44 64.0 °F 15.5 °F 29.78 in East 6.3 mph 9.2 mph 15% 0.00 in
13:49 64.2 °F 15.6 °F 29.79 in NE 6.7 mph 9.8 mph 15% 0.00 in
13:54 62.8 °F 14.5 °F 29.79 in NNE 6.2 mph 9.8 mph 15% 0.00 in
13:59 62.6 °F 14.3 °F 29.79 in NE 6.6 mph 14.5 mph 15% 0.00 in
14:04 62.8 °F 14.5 °F 29.78 in NE 6.6 mph 14.5 mph 15% 0.00 in
14:09 63.1 °F 14.8 °F 29.78 in NE 5.9 mph 6.0 mph 15% 0.00 in
14:14 62.8 °F 14.5 °F 29.78 in ENE 7.0 mph 12.1 mph 15% 0.00 in
14:19 63.1 °F 14.8 °F 29.78 in East 8.0 mph 12.1 mph 15% 0.00 in
14:24 62.6 °F 14.3 °F 29.78 in East 7.6 mph 12.1 mph 15% 0.00 in
14:29 62.4 °F 14.2 °F 29.78 in ESE 6.5 mph 9.2 mph 15% 0.00 in
14:34 61.9 °F 13.7 °F 29.78 in ESE 6.1 mph 9.8 mph 15% 0.00 in
14:39 61.5 °F 13.5 °F 29.78 in SE 5.9 mph 9.8 mph 15% 0.00 in
14:44 61.1 °F 13.2 °F 29.78 in SE 6.1 mph 9.2 mph 15% 0.00 in
14:49 61.9 °F 13.7 °F 29.78 in East 6.3 mph 10.7 mph 15% 0.00 in
14:54 61.0 °F 13.0 °F 29.78 in NE 6.7 mph 10.7 mph 15% 0.00 in
14:59 61.5 °F 13.5 °F 29.78 in NE 5.8 mph 10.7 mph 15% 0.00 in
15:04 61.7 °F 15.1 °F 29.77 in ENE 5.2 mph 6.9 mph 16% 0.00 in
15:09 62.6 °F 14.3 °F 29.78 in NE 6.6 mph 10.7 mph 15% 0.00 in
15:14 62.8 °F 14.5 °F 29.77 in NE 6.6 mph 10.7 mph 15% 0.00 in
15:19 63.5 °F 15.0 °F 29.77 in ENE 6.2 mph 10.7 mph 15% 0.00 in
15:24 63.3 °F 14.9 °F 29.77 in NE 5.3 mph 10.7 mph 15% 0.00 in
15:29 62.4 °F 14.2 °F 29.77 in SSE 4.5 mph 7.6 mph 15% 0.00 in
15:34 62.6 °F 14.3 °F 29.77 in ENE 5.4 mph 9.8 mph 15% 0.00 in
15:39 62.9 °F 14.6 °F 29.77 in NNE 5.5 mph 9.8 mph 15% 0.00 in
15:44 63.7 °F 15.2 °F 29.78 in East 4.7 mph 6.9 mph 15% 0.00 in
15:49 63.1 °F 14.8 °F 29.77 in ENE 4.6 mph 6.0 mph 15% 0.00 in
15:54 62.8 °F 14.5 °F 29.77 in NE 6.5 mph 11.4 mph 15% 0.00 in
15:59 62.8 °F 14.5 °F 29.77 in ENE 6.6 mph 11.4 mph 15% 0.00 in
16:04 62.8 °F 14.5 °F 29.77 in NNW 4.1 mph 6.9 mph 15% 0.00 in
16:09 63.5 °F 15.0 °F 29.77 in NNW 3.6 mph 6.0 mph 15% 0.00 in
16:14 62.9 °F 14.6 °F 29.77 in NNW 3.4 mph 6.0 mph 15% 0.00 in
16:19 62.9 °F 14.6 °F 29.77 in East 3.5 mph 7.6 mph 15% 0.00 in
16:24 63.7 °F 15.2 °F 29.77 in East 5.5 mph 9.8 mph 15% 0.00 in
16:30 64.9 °F 16.2 °F 29.77 in East 6.3 mph 9.8 mph 15% 0.00 in
16:35 63.5 °F 15.0 °F 29.77 in SE 5.9 mph 6.9 mph 15% 0.00 in
16:40 61.9 °F 13.7 °F 29.77 in SSE 5.4 mph 6.9 mph 15% 0.00 in
16:45 62.0 °F 13.9 °F 29.77 in SE 5.0 mph 6.9 mph 15% 0.00 in
16:50 61.9 °F 13.7 °F 29.77 in ESE 5.1 mph 6.9 mph 15% 0.00 in
16:55 62.4 °F 14.2 °F 29.76 in East 4.8 mph 6.9 mph 15% 0.00 in
Export, Pennsylvania, USA
Compliments of Weather Underground